sensor_id;sensor_type;location;lat;lon;timestamp;temperature;humidity
42989;DHT22;28622;43.716;20.668;2023-02-15T00:01:47;5.20;99.90
42989;DHT22;28622;43.716;20.668;2023-02-15T00:04:14;5.20;99.90
42989;DHT22;28622;43.716;20.668;2023-02-15T00:06:40;5.20;99.90
42989;DHT22;28622;43.716;20.668;2023-02-15T00:09:06;5.20;99.90
42989;DHT22;28622;43.716;20.668;2023-02-15T00:11:32;5.10;99.90
42989;DHT22;28622;43.716;20.668;2023-02-15T00:14:20;5.10;99.90
42989;DHT22;28622;43.716;20.668;2023-02-15T00:16:47;5.10;99.90
42989;DHT22;28622;43.716;20.668;2023-02-15T00:19:15;5.10;99.90
42989;DHT22;28622;43.716;20.668;2023-02-15T00:21:41;5.10;99.90
42989;DHT22;28622;43.716;20.668;2023-02-15T00:24:09;5.10;99.90
42989;DHT22;28622;43.716;20.668;2023-02-15T00:26:38;5.10;99.90
42989;DHT22;28622;43.716;20.668;2023-02-15T00:29:04;5.10;99.90
42989;DHT22;28622;43.716;20.668;2023-02-15T00:31:32;5.10;99.90
42989;DHT22;28622;43.716;20.668;2023-02-15T00:34:11;5.00;99.90
42989;DHT22;28622;43.716;20.668;2023-02-15T00:36:38;5.00;99.90
42989;DHT22;28622;43.716;20.668;2023-02-15T00:39:04;5.00;99.90
42989;DHT22;28622;43.716;20.668;2023-02-15T00:41:34;5.00;99.90
42989;DHT22;28622;43.716;20.668;2023-02-15T00:44:00;5.00;99.90
42989;DHT22;28622;43.716;20.668;2023-02-15T00:46:26;5.00;99.90
42989;DHT22;28622;43.716;20.668;2023-02-15T00:48:52;5.00;99.90
42989;DHT22;28622;43.716;20.668;2023-02-15T00:51:18;5.00;99.90
42989;DHT22;28622;43.716;20.668;2023-02-15T00:53:44;5.00;99.90
42989;DHT22;28622;43.716;20.668;2023-02-15T00:56:10;5.00;99.90
42989;DHT22;28622;43.716;20.668;2023-02-15T00:58:36;5.00;99.90
42989;DHT22;28622;43.716;20.668;2023-02-15T01:01:08;5.00;99.90
42989;DHT22;28622;43.716;20.668;2023-02-15T01:03:34;5.00;99.90
42989;DHT22;28622;43.716;20.668;2023-02-15T01:06:00;5.00;99.90
42989;DHT22;28622;43.716;20.668;2023-02-15T01:08:26;5.00;99.90
42989;DHT22;28622;43.716;20.668;2023-02-15T01:10:52;5.00;99.90
42989;DHT22;28622;43.716;20.668;2023-02-15T01:13:18;5.00;99.90
42989;DHT22;28622;43.716;20.668;2023-02-15T01:15:45;4.90;99.90
42989;DHT22;28622;43.716;20.668;2023-02-15T01:18:11;4.90;99.90
42989;DHT22;28622;43.716;20.668;2023-02-15T01:20:39;4.90;99.90
42989;DHT22;28622;43.716;20.668;2023-02-15T01:23:07;4.90;99.90
42989;DHT22;28622;43.716;20.668;2023-02-15T01:25:34;4.80;99.90
42989;DHT22;28622;43.716;20.668;2023-02-15T01:28:00;4.80;99.90
42989;DHT22;28622;43.716;20.668;2023-02-15T01:30:26;4.80;99.90
42989;DHT22;28622;43.716;20.668;2023-02-15T01:32:52;4.80;99.90
42989;DHT22;28622;43.716;20.668;2023-02-15T01:35:18;4.70;99.90
42989;DHT22;28622;43.716;20.668;2023-02-15T01:37:44;4.70;99.90
42989;DHT22;28622;43.716;20.668;2023-02-15T01:40:16;4.70;99.90
42989;DHT22;28622;43.716;20.668;2023-02-15T01:42:42;4.70;99.90
42989;DHT22;28622;43.716;20.668;2023-02-15T01:45:31;4.70;99.90
42989;DHT22;28622;43.716;20.668;2023-02-15T01:50:39;4.60;99.90
42989;DHT22;28622;43.716;20.668;2023-02-15T01:53:13;4.60;99.90
42989;DHT22;28622;43.716;20.668;2023-02-15T01:55:48;4.60;99.90
42989;DHT22;28622;43.716;20.668;2023-02-15T01:58:16;4.70;99.90
42989;DHT22;28622;43.716;20.668;2023-02-15T02:00:42;4.70;99.90
42989;DHT22;28622;43.716;20.668;2023-02-15T02:03:08;4.70;99.90
42989;DHT22;28622;43.716;20.668;2023-02-15T02:05:35;4.70;99.90
42989;DHT22;28622;43.716;20.668;2023-02-15T02:08:02;4.70;99.90
42989;DHT22;28622;43.716;20.668;2023-02-15T02:10:28;4.70;99.90
42989;DHT22;28622;43.716;20.668;2023-02-15T02:13:05;4.70;99.90
42989;DHT22;28622;43.716;20.668;2023-02-15T02:16:00;4.70;99.90
42989;DHT22;28622;43.716;20.668;2023-02-15T02:19:10;4.70;99.90
42989;DHT22;28622;43.716;20.668;2023-02-15T02:21:41;4.70;99.90
42989;DHT22;28622;43.716;20.668;2023-02-15T02:36:08;4.70;99.90
42989;DHT22;28622;43.716;20.668;2023-02-15T02:38:10;4.70;99.90
42989;DHT22;28622;43.716;20.668;2023-02-15T02:46:33;4.70;99.90
42989;DHT22;28622;43.716;20.668;2023-02-15T02:49:01;4.70;99.90
42989;DHT22;28622;43.716;20.668;2023-02-15T02:51:27;4.70;99.90
42989;DHT22;28622;43.716;20.668;2023-02-15T02:53:55;4.70;99.90
42989;DHT22;28622;43.716;20.668;2023-02-15T02:56:43;4.70;99.90
42989;DHT22;28622;43.716;20.668;2023-02-15T02:59:15;4.70;99.90
42989;DHT22;28622;43.716;20.668;2023-02-15T03:01:55;4.70;99.90
42989;DHT22;28622;43.716;20.668;2023-02-15T03:04:30;4.70;99.90
42989;DHT22;28622;43.716;20.668;2023-02-15T03:07:01;4.60;99.90
42989;DHT22;28622;43.716;20.668;2023-02-15T03:09:41;4.60;99.90
42989;DHT22;28622;43.716;20.668;2023-02-15T03:12:20;4.50;99.90
42989;DHT22;28622;43.716;20.668;2023-02-15T03:15:03;4.60;99.90
42989;DHT22;28622;43.716;20.668;2023-02-15T03:17:32;4.60;99.90
42989;DHT22;28622;43.716;20.668;2023-02-15T03:20:04;4.60;99.90
42989;DHT22;28622;43.716;20.668;2023-02-15T03:22:35;4.60;99.90
42989;DHT22;28622;43.716;20.668;2023-02-15T03:27:38;4.60;99.90
42989;DHT22;28622;43.716;20.668;2023-02-15T03:30:05;4.60;99.90
42989;DHT22;28622;43.716;20.668;2023-02-15T03:32:33;4.60;99.90
42989;DHT22;28622;43.716;20.668;2023-02-15T03:35:00;4.50;99.90
42989;DHT22;28622;43.716;20.668;2023-02-15T03:37:31;4.50;99.90
42989;DHT22;28622;43.716;20.668;2023-02-15T03:40:11;4.50;99.90
42989;DHT22;28622;43.716;20.668;2023-02-15T03:45:38;4.50;99.90
42989;DHT22;28622;43.716;20.668;2023-02-15T03:48:26;4.40;99.90
42989;DHT22;28622;43.716;20.668;2023-02-15T03:50:57;4.50;99.90
42989;DHT22;28622;43.716;20.668;2023-02-15T03:53:43;4.50;99.90
42989;DHT22;28622;43.716;20.668;2023-02-15T03:56:10;4.50;99.90
42989;DHT22;28622;43.716;20.668;2023-02-15T03:58:35;4.50;99.90
42989;DHT22;28622;43.716;20.668;2023-02-15T04:01:40;4.40;99.90
42989;DHT22;28622;43.716;20.668;2023-02-15T04:04:39;4.40;99.90
42989;DHT22;28622;43.716;20.668;2023-02-15T04:07:08;4.40;99.90
42989;DHT22;28622;43.716;20.668;2023-02-15T04:09:34;4.40;99.90
42989;DHT22;28622;43.716;20.668;2023-02-15T04:12:18;4.40;99.90
42989;DHT22;28622;43.716;20.668;2023-02-15T04:14:43;4.40;99.90
42989;DHT22;28622;43.716;20.668;2023-02-15T04:17:28;4.40;99.90
42989;DHT22;28622;43.716;20.668;2023-02-15T04:19:54;4.40;99.90
42989;DHT22;28622;43.716;20.668;2023-02-15T04:22:38;4.40;99.90
42989;DHT22;28622;43.716;20.668;2023-02-15T04:25:22;4.40;99.90
42989;DHT22;28622;43.716;20.668;2023-02-15T04:27:50;4.40;99.90
42989;DHT22;28622;43.716;20.668;2023-02-15T04:30:18;4.40;99.90
42989;DHT22;28622;43.716;20.668;2023-02-15T04:32:45;4.40;99.90
42989;DHT22;28622;43.716;20.668;2023-02-15T04:35:11;4.40;99.90
42989;DHT22;28622;43.716;20.668;2023-02-15T04:37:37;4.40;99.90
42989;DHT22;28622;43.716;20.668;2023-02-15T04:40:07;4.40;99.90
42989;DHT22;28622;43.716;20.668;2023-02-15T04:42:33;4.50;99.90
42989;DHT22;28622;43.716;20.668;2023-02-15T04:44:59;4.40;99.90
42989;DHT22;28622;43.716;20.668;2023-02-15T04:47:25;4.50;99.90
42989;DHT22;28622;43.716;20.668;2023-02-15T04:49:51;4.40;99.90
42989;DHT22;28622;43.716;20.668;2023-02-15T04:52:16;4.50;99.90
42989;DHT22;28622;43.716;20.668;2023-02-15T04:54:45;4.50;99.90
42989;DHT22;28622;43.716;20.668;2023-02-15T04:57:11;4.50;99.90
42989;DHT22;28622;43.716;20.668;2023-02-15T04:59:37;4.50;99.90
42989;DHT22;28622;43.716;20.668;2023-02-15T05:02:03;4.40;99.90
42989;DHT22;28622;43.716;20.668;2023-02-15T05:04:29;4.40;99.90
42989;DHT22;28622;43.716;20.668;2023-02-15T05:06:55;4.40;99.90
42989;DHT22;28622;43.716;20.668;2023-02-15T05:09:20;4.40;99.90
42989;DHT22;28622;43.716;20.668;2023-02-15T05:11:46;4.40;99.90
42989;DHT22;28622;43.716;20.668;2023-02-15T05:14:12;4.40;99.90
42989;DHT22;28622;43.716;20.668;2023-02-15T05:16:38;4.40;99.90
42989;DHT22;28622;43.716;20.668;2023-02-15T05:19:04;4.40;99.90
42989;DHT22;28622;43.716;20.668;2023-02-15T05:21:31;4.40;99.90
42989;DHT22;28622;43.716;20.668;2023-02-15T05:23:57;4.40;99.90
42989;DHT22;28622;43.716;20.668;2023-02-15T05:26:24;4.40;99.90
42989;DHT22;28622;43.716;20.668;2023-02-15T05:29:09;4.30;99.90
42989;DHT22;28622;43.716;20.668;2023-02-15T05:31:35;4.40;99.90
42989;DHT22;28622;43.716;20.668;2023-02-15T05:34:01;4.30;99.90
42989;DHT22;28622;43.716;20.668;2023-02-15T05:36:27;4.20;99.90
42989;DHT22;28622;43.716;20.668;2023-02-15T05:38:54;4.20;99.90
42989;DHT22;28622;43.716;20.668;2023-02-15T05:41:20;4.20;99.90
42989;DHT22;28622;43.716;20.668;2023-02-15T05:43:46;4.20;99.90
42989;DHT22;28622;43.716;20.668;2023-02-15T05:46:12;4.20;99.90
42989;DHT22;28622;43.716;20.668;2023-02-15T05:48:38;4.20;99.90
42989;DHT22;28622;43.716;20.668;2023-02-15T05:51:10;4.20;99.90
42989;DHT22;28622;43.716;20.668;2023-02-15T05:53:39;4.30;99.90
42989;DHT22;28622;43.716;20.668;2023-02-15T05:56:09;4.20;99.90
42989;DHT22;28622;43.716;20.668;2023-02-15T05:58:37;4.30;99.90
42989;DHT22;28622;43.716;20.668;2023-02-15T06:01:17;4.30;99.90
42989;DHT22;28622;43.716;20.668;2023-02-15T06:03:44;4.30;99.90
42989;DHT22;28622;43.716;20.668;2023-02-15T06:06:10;4.30;99.90
42989;DHT22;28622;43.716;20.668;2023-02-15T06:08:37;4.40;99.90
42989;DHT22;28622;43.716;20.668;2023-02-15T06:11:03;4.40;99.90
42989;DHT22;28622;43.716;20.668;2023-02-15T06:13:29;4.40;99.90
42989;DHT22;28622;43.716;20.668;2023-02-15T06:15:55;4.40;99.90
42989;DHT22;28622;43.716;20.668;2023-02-15T06:18:21;4.40;99.90
42989;DHT22;28622;43.716;20.668;2023-02-15T06:20:47;4.40;99.90
42989;DHT22;28622;43.716;20.668;2023-02-15T06:23:13;4.40;99.90
42989;DHT22;28622;43.716;20.668;2023-02-15T06:25:39;4.50;99.90
42989;DHT22;28622;43.716;20.668;2023-02-15T06:28:05;4.50;99.90
42989;DHT22;28622;43.716;20.668;2023-02-15T06:30:31;4.50;99.90
42989;DHT22;28622;43.716;20.668;2023-02-15T06:32:57;4.60;99.90
42989;DHT22;28622;43.716;20.668;2023-02-15T06:35:22;4.60;99.90
42989;DHT22;28622;43.716;20.668;2023-02-15T06:37:48;4.70;99.90
42989;DHT22;28622;43.716;20.668;2023-02-15T06:40:14;4.80;99.90
42989;DHT22;28622;43.716;20.668;2023-02-15T06:42:41;4.80;99.90
42989;DHT22;28622;43.716;20.668;2023-02-15T06:45:08;4.90;99.90
42989;DHT22;28622;43.716;20.668;2023-02-15T06:47:34;4.90;99.90
42989;DHT22;28622;43.716;20.668;2023-02-15T06:50:00;4.90;99.90
42989;DHT22;28622;43.716;20.668;2023-02-15T06:52:26;4.90;99.90
42989;DHT22;28622;43.716;20.668;2023-02-15T06:54:52;5.00;99.90
42989;DHT22;28622;43.716;20.668;2023-02-15T06:57:17;5.00;99.90
42989;DHT22;28622;43.716;20.668;2023-02-15T06:59:43;5.00;99.90
42989;DHT22;28622;43.716;20.668;2023-02-15T07:02:11;5.10;99.90
42989;DHT22;28622;43.716;20.668;2023-02-15T07:04:37;5.00;99.90
42989;DHT22;28622;43.716;20.668;2023-02-15T07:07:03;5.00;99.90
42989;DHT22;28622;43.716;20.668;2023-02-15T07:09:29;5.10;99.90
42989;DHT22;28622;43.716;20.668;2023-02-15T07:11:55;5.10;99.90
42989;DHT22;28622;43.716;20.668;2023-02-15T07:14:39;5.20;99.90
42989;DHT22;28622;43.716;20.668;2023-02-15T07:17:06;5.20;99.90
42989;DHT22;28622;43.716;20.668;2023-02-15T07:19:31;5.30;99.90
42989;DHT22;28622;43.716;20.668;2023-02-15T07:21:57;5.30;99.90
42989;DHT22;28622;43.716;20.668;2023-02-15T07:24:23;5.40;99.90
42989;DHT22;28622;43.716;20.668;2023-02-15T07:26:49;5.40;99.90
42989;DHT22;28622;43.716;20.668;2023-02-15T07:29:16;5.50;99.90
42989;DHT22;28622;43.716;20.668;2023-02-15T07:31:42;5.50;99.90
42989;DHT22;28622;43.716;20.668;2023-02-15T07:34:10;5.60;99.90
42989;DHT22;28622;43.716;20.668;2023-02-15T07:36:36;5.60;99.90
42989;DHT22;28622;43.716;20.668;2023-02-15T07:39:02;5.70;99.90
42989;DHT22;28622;43.716;20.668;2023-02-15T07:41:28;5.70;99.90
42989;DHT22;28622;43.716;20.668;2023-02-15T07:43:54;5.70;99.90
42989;DHT22;28622;43.716;20.668;2023-02-15T07:46:20;5.80;99.90
42989;DHT22;28622;43.716;20.668;2023-02-15T07:48:46;5.90;99.90
42989;DHT22;28622;43.716;20.668;2023-02-15T07:51:13;5.90;99.90
42989;DHT22;28622;43.716;20.668;2023-02-15T07:53:40;6.00;99.90
42989;DHT22;28622;43.716;20.668;2023-02-15T07:56:15;6.10;99.90
42989;DHT22;28622;43.716;20.668;2023-02-15T07:58:41;6.20;99.90
42989;DHT22;28622;43.716;20.668;2023-02-15T08:01:27;6.30;99.90
42989;DHT22;28622;43.716;20.668;2023-02-15T08:03:54;6.40;99.90
42989;DHT22;28622;43.716;20.668;2023-02-15T08:06:22;6.50;99.90
42989;DHT22;28622;43.716;20.668;2023-02-15T08:08:48;6.70;99.90
42989;DHT22;28622;43.716;20.668;2023-02-15T08:11:18;6.80;99.90
42989;DHT22;28622;43.716;20.668;2023-02-15T08:14:21;6.90;99.90
42989;DHT22;28622;43.716;20.668;2023-02-15T08:16:58;7.10;99.90
42989;DHT22;28622;43.716;20.668;2023-02-15T08:19:29;7.20;99.90
42989;DHT22;28622;43.716;20.668;2023-02-15T08:21:57;7.20;99.90
42989;DHT22;28622;43.716;20.668;2023-02-15T08:24:26;7.30;99.90
42989;DHT22;28622;43.716;20.668;2023-02-15T08:26:52;7.40;99.90
42989;DHT22;28622;43.716;20.668;2023-02-15T08:29:21;7.50;99.90
42989;DHT22;28622;43.716;20.668;2023-02-15T08:31:49;7.50;99.90
42989;DHT22;28622;43.716;20.668;2023-02-15T08:34:17;7.50;99.90
42989;DHT22;28622;43.716;20.668;2023-02-15T08:36:44;7.60;99.90
42989;DHT22;28622;43.716;20.668;2023-02-15T08:39:14;7.60;99.90
42989;DHT22;28622;43.716;20.668;2023-02-15T08:41:45;7.70;99.90
42989;DHT22;28622;43.716;20.668;2023-02-15T08:44:11;7.70;99.90
42989;DHT22;28622;43.716;20.668;2023-02-15T08:46:39;7.70;99.90
42989;DHT22;28622;43.716;20.668;2023-02-15T08:49:06;7.80;99.90
42989;DHT22;28622;43.716;20.668;2023-02-15T08:51:36;7.90;99.90
42989;DHT22;28622;43.716;20.668;2023-02-15T08:54:08;8.00;99.90
42989;DHT22;28622;43.716;20.668;2023-02-15T08:56:39;8.10;99.90
42989;DHT22;28622;43.716;20.668;2023-02-15T08:59:07;8.10;99.90
42989;DHT22;28622;43.716;20.668;2023-02-15T09:01:34;8.10;99.30
42989;DHT22;28622;43.716;20.668;2023-02-15T09:04:03;8.30;99.90
42989;DHT22;28622;43.716;20.668;2023-02-15T09:06:30;8.40;99.90
42989;DHT22;28622;43.716;20.668;2023-02-15T09:08:57;8.40;99.50
42989;DHT22;28622;43.716;20.668;2023-02-15T09:11:27;8.60;99.90
42989;DHT22;28622;43.716;20.668;2023-02-15T09:13:59;8.70;98.60
42989;DHT22;28622;43.716;20.668;2023-02-15T09:16:27;8.80;97.60
42989;DHT22;28622;43.716;20.668;2023-02-15T09:18:54;9.20;97.30
42989;DHT22;28622;43.716;20.668;2023-02-15T09:21:22;9.80;95.30
42989;DHT22;28622;43.716;20.668;2023-02-15T09:23:51;9.80;94.20
42989;DHT22;28622;43.716;20.668;2023-02-15T09:26:19;9.60;94.20
42989;DHT22;28622;43.716;20.668;2023-02-15T09:28:46;9.40;93.40
42989;DHT22;28622;43.716;20.668;2023-02-15T09:31:18;9.20;93.30
42989;DHT22;28622;43.716;20.668;2023-02-15T09:33:45;9.50;94.70
42989;DHT22;28622;43.716;20.668;2023-02-15T09:36:16;10.10;92.70
42989;DHT22;28622;43.716;20.668;2023-02-15T09:38:42;10.40;91.90
42989;DHT22;28622;43.716;20.668;2023-02-15T09:41:41;10.70;91.30
42989;DHT22;28622;43.716;20.668;2023-02-15T09:44:37;10.60;91.20
42989;DHT22;28622;43.716;20.668;2023-02-15T09:58:34;10.00;90.30
42989;DHT22;28622;43.716;20.668;2023-02-15T10:09:17;12.70;86.20
42989;DHT22;28622;43.716;20.668;2023-02-15T10:19:52;14.00;79.00
42989;DHT22;28622;43.716;20.668;2023-02-15T10:22:24;14.20;78.30
42989;DHT22;28622;43.716;20.668;2023-02-15T10:27:26;14.50;80.30
42989;DHT22;28622;43.716;20.668;2023-02-15T10:30:05;14.50;78.00
42989;DHT22;28622;43.716;20.668;2023-02-15T10:37:57;14.40;77.00
42989;DHT22;28622;43.716;20.668;2023-02-15T10:59:50;13.40;78.50
42989;DHT22;28622;43.716;20.668;2023-02-15T11:02:30;13.20;78.30
42989;DHT22;28622;43.716;20.668;2023-02-15T11:05:07;13.60;78.80
42989;DHT22;28622;43.716;20.668;2023-02-15T11:07:41;13.90;77.80
42989;DHT22;28622;43.716;20.668;2023-02-15T11:12:44;13.90;76.00
42989;DHT22;28622;43.716;20.668;2023-02-15T11:15:20;14.30;75.80
42989;DHT22;28622;43.716;20.668;2023-02-15T11:17:56;14.40;75.50
42989;DHT22;28622;43.716;20.668;2023-02-15T11:20:42;14.40;76.30
42989;DHT22;28622;43.716;20.668;2023-02-15T11:23:14;14.10;76.20
42989;DHT22;28622;43.716;20.668;2023-02-15T11:25:43;13.80;78.60
42989;DHT22;28622;43.716;20.668;2023-02-15T11:28:24;13.80;80.30
42989;DHT22;28622;43.716;20.668;2023-02-15T11:30:54;13.60;77.50
42989;DHT22;28622;43.716;20.668;2023-02-15T11:33:27;13.60;80.10
42989;DHT22;28622;43.716;20.668;2023-02-15T11:36:04;14.00;78.40
42989;DHT22;28622;43.716;20.668;2023-02-15T11:38:34;13.90;75.30
42989;DHT22;28622;43.716;20.668;2023-02-15T11:41:10;14.00;79.60
42989;DHT22;28622;43.716;20.668;2023-02-15T11:44:05;14.00;77.10
42989;DHT22;28622;43.716;20.668;2023-02-15T11:46:32;14.50;77.30
42989;DHT22;28622;43.716;20.668;2023-02-15T11:48:58;14.70;81.50
42989;DHT22;28622;43.716;20.668;2023-02-15T11:51:24;15.00;80.50
42989;DHT22;28622;43.716;20.668;2023-02-15T11:53:52;14.80;77.30
42989;DHT22;28622;43.716;20.668;2023-02-15T11:56:21;15.00;76.00
42989;DHT22;28622;43.716;20.668;2023-02-15T11:58:52;14.70;75.30
42989;DHT22;28622;43.716;20.668;2023-02-15T12:04:25;14.60;75.70
42989;DHT22;28622;43.716;20.668;2023-02-15T12:06:58;14.60;77.10
42989;DHT22;28622;43.716;20.668;2023-02-15T12:10:04;14.80;74.50
42989;DHT22;28622;43.716;20.668;2023-02-15T12:12:37;14.60;74.50
42989;DHT22;28622;43.716;20.668;2023-02-15T12:15:04;14.90;73.20
42989;DHT22;28622;43.716;20.668;2023-02-15T12:17:33;15.10;73.20
42989;DHT22;28622;43.716;20.668;2023-02-15T12:20:41;15.00;73.10
42989;DHT22;28622;43.716;20.668;2023-02-15T12:23:13;15.00;74.10
42989;DHT22;28622;43.716;20.668;2023-02-15T12:25:49;14.80;80.70
42989;DHT22;28622;43.716;20.668;2023-02-15T12:28:33;14.90;79.40
42989;DHT22;28622;43.716;20.668;2023-02-15T12:31:02;15.00;75.40
42989;DHT22;28622;43.716;20.668;2023-02-15T12:33:36;15.20;74.60
42989;DHT22;28622;43.716;20.668;2023-02-15T12:36:29;15.20;77.60
42989;DHT22;28622;43.716;20.668;2023-02-15T12:39:22;15.00;74.00
42989;DHT22;28622;43.716;20.668;2023-02-15T12:44:23;15.30;73.60
42989;DHT22;28622;43.716;20.668;2023-02-15T12:46:59;14.80;73.30
42989;DHT22;28622;43.716;20.668;2023-02-15T12:49:30;14.80;75.40
42989;DHT22;28622;43.716;20.668;2023-02-15T12:51:57;14.90;76.60
42989;DHT22;28622;43.716;20.668;2023-02-15T12:54:35;15.00;76.10
42989;DHT22;28622;43.716;20.668;2023-02-15T12:57:14;14.70;74.90
42989;DHT22;28622;43.716;20.668;2023-02-15T12:59:51;14.90;76.40
42989;DHT22;28622;43.716;20.668;2023-02-15T13:03:14;14.80;76.50
42989;DHT22;28622;43.716;20.668;2023-02-15T13:08:14;14.60;76.30
42989;DHT22;28622;43.716;20.668;2023-02-15T13:10:52;14.80;77.00
42989;DHT22;28622;43.716;20.668;2023-02-15T13:13:21;14.90;79.40
42989;DHT22;28622;43.716;20.668;2023-02-15T13:15:51;14.90;78.00
42989;DHT22;28622;43.716;20.668;2023-02-15T13:23:32;14.90;75.60
42989;DHT22;28622;43.716;20.668;2023-02-15T13:26:03;14.90;74.80
42989;DHT22;28622;43.716;20.668;2023-02-15T13:28:42;15.10;75.00
42989;DHT22;28622;43.716;20.668;2023-02-15T13:31:20;15.30;74.70
42989;DHT22;28622;43.716;20.668;2023-02-15T13:34:43;15.30;73.70
42989;DHT22;28622;43.716;20.668;2023-02-15T13:36:54;15.40;74.00
42989;DHT22;28622;43.716;20.668;2023-02-15T13:39:39;15.20;73.90
42989;DHT22;28622;43.716;20.668;2023-02-15T13:42:22;15.00;74.60
42989;DHT22;28622;43.716;20.668;2023-02-15T13:47:51;15.20;74.10
42989;DHT22;28622;43.716;20.668;2023-02-15T14:04:00;15.00;72.60
42989;DHT22;28622;43.716;20.668;2023-02-15T14:14:55;15.10;72.80
42989;DHT22;28622;43.716;20.668;2023-02-15T14:25:40;14.50;72.40
42989;DHT22;28622;43.716;20.668;2023-02-15T14:28:12;14.30;73.50
42989;DHT22;28622;43.716;20.668;2023-02-15T14:30:44;14.20;74.30
42989;DHT22;28622;43.716;20.668;2023-02-15T14:35:40;14.10;74.60
42989;DHT22;28622;43.716;20.668;2023-02-15T14:38:22;14.00;75.60
42989;DHT22;28622;43.716;20.668;2023-02-15T14:44:21;13.60;83.10
42989;DHT22;28622;43.716;20.668;2023-02-15T14:47:06;13.30;75.50
42989;DHT22;28622;43.716;20.668;2023-02-15T14:49:37;13.00;75.80
42989;DHT22;28622;43.716;20.668;2023-02-15T14:52:08;12.80;78.10
42989;DHT22;28622;43.716;20.668;2023-02-15T14:59:46;12.30;79.30
42989;DHT22;28622;43.716;20.668;2023-02-15T15:02:47;12.10;78.90
42989;DHT22;28622;43.716;20.668;2023-02-15T15:07:57;12.00;81.40
42989;DHT22;28622;43.716;20.668;2023-02-15T15:10:39;11.80;81.10
42989;DHT22;28622;43.716;20.668;2023-02-15T15:15:57;11.50;82.70
42989;DHT22;28622;43.716;20.668;2023-02-15T15:18:47;11.40;83.30
42989;DHT22;28622;43.716;20.668;2023-02-15T15:30:10;11.00;89.80
42989;DHT22;28622;43.716;20.668;2023-02-15T15:49:17;10.40;86.50
42989;DHT22;28622;43.716;20.668;2023-02-15T15:51:45;10.20;87.40
42989;DHT22;28622;43.716;20.668;2023-02-15T15:54:19;10.10;88.60
42989;DHT22;28622;43.716;20.668;2023-02-15T15:57:06;10.00;89.80
42989;DHT22;28622;43.716;20.668;2023-02-15T15:59:44;9.80;90.00
42989;DHT22;28622;43.716;20.668;2023-02-15T16:02:15;9.70;90.00
42989;DHT22;28622;43.716;20.668;2023-02-15T16:04:43;9.70;90.20
42989;DHT22;28622;43.716;20.668;2023-02-15T16:12:30;9.30;90.90
42989;DHT22;28622;43.716;20.668;2023-02-15T16:14:56;9.30;90.20
42989;DHT22;28622;43.716;20.668;2023-02-15T16:17:25;9.30;90.20
42989;DHT22;28622;43.716;20.668;2023-02-15T16:19:56;9.30;92.20
42989;DHT22;28622;43.716;20.668;2023-02-15T16:22:25;9.30;92.70
42989;DHT22;28622;43.716;20.668;2023-02-15T16:27:44;9.00;90.60
42989;DHT22;28622;43.716;20.668;2023-02-15T16:30:32;8.80;90.70
42989;DHT22;28622;43.716;20.668;2023-02-15T16:33:12;8.70;92.60
42989;DHT22;28622;43.716;20.668;2023-02-15T16:35:41;8.60;92.00
42989;DHT22;28622;43.716;20.668;2023-02-15T16:38:24;8.40;91.40
42989;DHT22;28622;43.716;20.668;2023-02-15T16:40:55;8.30;92.30
42989;DHT22;28622;43.716;20.668;2023-02-15T16:43:26;8.10;92.00
42989;DHT22;28622;43.716;20.668;2023-02-15T16:46:04;8.10;92.20
42989;DHT22;28622;43.716;20.668;2023-02-15T16:48:32;7.80;92.80
42989;DHT22;28622;43.716;20.668;2023-02-15T16:51:00;7.80;93.30
42989;DHT22;28622;43.716;20.668;2023-02-15T16:53:27;7.60;93.20
42989;DHT22;28622;43.716;20.668;2023-02-15T16:56:04;7.40;93.90
42989;DHT22;28622;43.716;20.668;2023-02-15T16:58:40;7.20;94.40
42989;DHT22;28622;43.716;20.668;2023-02-15T17:01:09;7.00;94.70
42989;DHT22;28622;43.716;20.668;2023-02-15T17:03:36;6.80;95.10
42989;DHT22;28622;43.716;20.668;2023-02-15T17:06:03;6.70;95.50
42989;DHT22;28622;43.716;20.668;2023-02-15T17:08:42;6.70;95.90
42989;DHT22;28622;43.716;20.668;2023-02-15T17:11:35;6.50;96.10
42989;DHT22;28622;43.716;20.668;2023-02-15T17:16:45;6.50;96.00
42989;DHT22;28622;43.716;20.668;2023-02-15T17:19:50;6.50;96.00
42989;DHT22;28622;43.716;20.668;2023-02-15T17:22:23;6.30;96.10
42989;DHT22;28622;43.716;20.668;2023-02-15T17:24:58;6.30;96.00
42989;DHT22;28622;43.716;20.668;2023-02-15T17:27:26;6.40;95.60
42989;DHT22;28622;43.716;20.668;2023-02-15T17:30:12;6.30;95.30
42989;DHT22;28622;43.716;20.668;2023-02-15T17:32:53;6.40;95.30
42989;DHT22;28622;43.716;20.668;2023-02-15T17:37:48;6.40;95.30
42989;DHT22;28622;43.716;20.668;2023-02-15T17:42:49;6.30;95.80
42989;DHT22;28622;43.716;20.668;2023-02-15T17:45:15;6.20;95.50
42989;DHT22;28622;43.716;20.668;2023-02-15T17:47:41;6.20;95.70
42989;DHT22;28622;43.716;20.668;2023-02-15T17:50:10;6.20;95.70
42989;DHT22;28622;43.716;20.668;2023-02-15T17:52:41;6.10;95.70
42989;DHT22;28622;43.716;20.668;2023-02-15T17:55:14;6.00;95.90
42989;DHT22;28622;43.716;20.668;2023-02-15T17:57:58;6.00;96.00
42989;DHT22;28622;43.716;20.668;2023-02-15T18:00:24;5.90;96.40
42989;DHT22;28622;43.716;20.668;2023-02-15T18:03:10;5.80;96.70
42989;DHT22;28622;43.716;20.668;2023-02-15T18:05:55;5.80;96.50
42989;DHT22;28622;43.716;20.668;2023-02-15T18:08:39;5.80;96.30
42989;DHT22;28622;43.716;20.668;2023-02-15T18:11:23;5.80;96.40
42989;DHT22;28622;43.716;20.668;2023-02-15T18:14:09;5.70;96.70
42989;DHT22;28622;43.716;20.668;2023-02-15T18:16:37;5.70;97.10
42989;DHT22;28622;43.716;20.668;2023-02-15T18:19:05;5.60;97.20
42989;DHT22;28622;43.716;20.668;2023-02-15T18:21:34;5.60;97.10
42989;DHT22;28622;43.716;20.668;2023-02-15T18:24:00;5.50;97.30
42989;DHT22;28622;43.716;20.668;2023-02-15T18:26:26;5.50;97.20
42989;DHT22;28622;43.716;20.668;2023-02-15T18:28:53;5.40;97.60
42989;DHT22;28622;43.716;20.668;2023-02-15T18:31:19;5.40;97.80
42989;DHT22;28622;43.716;20.668;2023-02-15T18:33:55;5.40;97.90
42989;DHT22;28622;43.716;20.668;2023-02-15T18:36:32;5.40;97.80
42989;DHT22;28622;43.716;20.668;2023-02-15T18:38:59;5.40;98.20
42989;DHT22;28622;43.716;20.668;2023-02-15T18:41:24;5.30;97.80
42989;DHT22;28622;43.716;20.668;2023-02-15T18:43:51;5.30;98.00
42989;DHT22;28622;43.716;20.668;2023-02-15T18:46:18;5.20;98.40
42989;DHT22;28622;43.716;20.668;2023-02-15T18:48:44;5.10;98.60
42989;DHT22;28622;43.716;20.668;2023-02-15T18:51:21;5.10;98.60
42989;DHT22;28622;43.716;20.668;2023-02-15T18:53:50;5.20;98.60
42989;DHT22;28622;43.716;20.668;2023-02-15T18:56:19;5.10;98.60
42989;DHT22;28622;43.716;20.668;2023-02-15T18:58:45;5.00;98.80
42989;DHT22;28622;43.716;20.668;2023-02-15T19:01:16;4.90;99.00
42989;DHT22;28622;43.716;20.668;2023-02-15T19:03:44;4.80;99.40